Time,TemperatureF,DewpointF,PressureIn,WindDirection,WindDirectionDegrees,WindSpeedMPH,WindSpeedGustMPH,Humidity,HourlyPrecipIn,Conditions,Clouds,dailyrainin,SoftwareType,DateUTC
2013-05-30 00:00:00,62.6,61.1,29.50,SSW,193,3.0,3.0,95,0.27,,,0.00,Wunderground v.1.15,2013-05-30 05:00:00,
2013-05-30 00:10:00,62.5,61.0,29.50,SE,140,1.0,2.0,95,0.05,,,0.00,Wunderground v.1.15,2013-05-30 05:10:00,
2013-05-30 00:20:00,62.6,61.4,29.55,WSW,240,4.0,8.0,96,1.87,,,0.08,Wunderground v.1.15,2013-05-30 05:20:00,
2013-05-30 00:30:00,62.4,61.2,29.54,SSW,210,6.0,7.0,96,0.28,,,0.18,Wunderground v.1.15,2013-05-30 05:30:00,
2013-05-30 00:40:00,62.5,61.3,29.54,South,187,9.0,9.0,96,0.05,,,0.18,Wunderground v.1.15,2013-05-30 05:40:00,
2013-05-30 00:50:00,62.5,61.3,29.52,SW,217,9.0,10.0,96,0.00,,,0.18,Wunderground v.1.15,2013-05-30 05:50:00,
2013-05-30 01:00:00,62.6,61.4,29.51,South,170,10.0,12.0,96,0.00,,,0.18,Wunderground v.1.15,2013-05-30 06:00:00,
2013-05-30 01:10:00,62.5,61.3,29.49,SSW,193,8.0,8.0,96,0.00,,,0.19,Wunderground v.1.15,2013-05-30 06:10:00,
2013-05-30 01:15:00,62.4,61.2,29.48,SSW,203,8.0,9.0,96,0.00,,,0.19,Wunderground v.1.15,2013-05-30 06:15:00,
2013-05-30 01:25:00,62.3,61.1,29.48,SSE,166,6.0,7.0,96,0.00,,,0.19,Wunderground v.1.15,2013-05-30 06:25:00,
2013-05-30 01:35:00,62.3,61.1,29.46,SE,135,7.0,7.0,96,0.00,,,0.19,Wunderground v.1.15,2013-05-30 06:35:00,
2013-05-30 01:45:00,62.2,61.0,29.45,SE,134,6.0,8.0,96,0.00,,,0.19,Wunderground v.1.15,2013-05-30 06:45:00,
2013-05-30 01:55:00,62.0,60.8,29.45,SE,141,6.0,7.0,96,0.00,,,0.19,Wunderground v.1.15,2013-05-30 06:55:00,
2013-05-30 02:00:00,61.9,60.7,29.44,South,190,8.0,8.0,96,0.00,,,0.19,Wunderground v.1.15,2013-05-30 07:00:00,
2013-05-30 02:10:00,62.0,60.8,29.45,SE,145,7.0,11.0,96,0.00,,,0.19,Wunderground v.1.15,2013-05-30 07:10:00,
2013-05-30 02:15:00,61.9,60.7,29.45,SSE,152,7.0,11.0,96,0.00,,,0.19,Wunderground v.1.15,2013-05-30 07:15:00,
2013-05-30 02:25:00,61.8,60.6,29.44,SSE,153,8.0,11.0,96,0.00,,,0.19,Wunderground v.1.15,2013-05-30 07:25:00,
2013-05-30 02:35:00,61.6,60.4,29.45,SSE,168,6.0,7.0,96,0.00,,,0.19,Wunderground v.1.15,2013-05-30 07:35:00,
2013-05-30 02:40:00,61.6,60.4,29.45,SSE,159,5.0,5.0,96,0.00,,,0.19,Wunderground v.1.15,2013-05-30 07:40:00,
2013-05-30 02:50:00,61.3,60.2,29.45,SSE,156,4.0,5.0,96,0.00,,,0.19,Wunderground v.1.15,2013-05-30 07:50:00,
2013-05-30 02:55:00,61.3,60.2,29.45,SE,137,5.0,5.0,96,0.00,,,0.19,Wunderground v.1.15,2013-05-30 07:55:00,
2013-05-30 03:00:00,61.2,60.1,29.45,SSE,158,5.0,7.0,96,0.00,,,0.19,Wunderground v.1.15,2013-05-30 08:00:00,
2013-05-30 03:10:00,61.1,60.0,29.46,SE,142,6.0,6.0,96,0.00,,,0.19,Wunderground v.1.15,2013-05-30 08:10:00,
2013-05-30 03:20:00,61.2,60.1,29.47,SSE,148,6.0,7.0,96,0.00,,,0.19,Wunderground v.1.15,2013-05-30 08:20:00,
2013-05-30 03:30:00,61.4,60.2,29.48,South,175,8.0,8.0,96,0.00,,,0.19,Wunderground v.1.15,2013-05-30 08:30:00,
2013-05-30 03:35:00,61.5,60.3,29.47,SE,132,9.0,10.0,96,0.00,,,0.19,Wunderground v.1.15,2013-05-30 08:35:00,
2013-05-30 03:45:00,61.6,60.4,29.46,SSE,158,10.0,12.0,96,0.00,,,0.19,Wunderground v.1.15,2013-05-30 08:45:00,
2013-05-30 03:55:00,61.5,60.3,29.46,SE,134,12.0,15.0,96,0.00,,,0.19,Wunderground v.1.15,2013-05-30 08:55:00,
2013-05-30 04:00:00,61.5,60.3,29.46,South,170,12.0,12.0,96,0.00,,,0.19,Wunderground v.1.15,2013-05-30 09:00:00,
2013-05-30 04:10:00,61.5,60.3,29.47,SSE,168,13.0,13.0,96,0.00,,,0.19,Wunderground v.1.15,2013-05-30 09:10:00,
2013-05-30 04:20:00,61.2,59.8,29.48,SSW,203,12.0,14.0,95,0.00,,,0.19,Wunderground v.1.15,2013-05-30 09:20:00,
2013-05-30 04:30:00,61.0,59.6,29.49,SSW,196,12.0,12.0,95,0.00,,,0.19,Wunderground v.1.15,2013-05-30 09:30:00,
2013-05-30 04:40:00,60.9,59.2,29.50,South,191,11.0,13.0,94,0.00,,,0.19,Wunderground v.1.15,2013-05-30 09:40:00,
2013-05-30 04:50:00,60.9,59.2,29.50,SSW,205,12.0,13.0,94,0.00,,,0.19,Wunderground v.1.15,2013-05-30 09:50:00,
2013-05-30 05:00:00,60.9,59.2,29.49,South,176,12.0,12.0,94,0.00,,,0.19,Wunderground v.1.15,2013-05-30 10:00:00,
2013-05-30 05:10:00,60.8,59.1,29.49,SSW,203,11.0,11.0,94,0.00,,,0.19,Wunderground v.1.15,2013-05-30 10:10:00,
2013-05-30 05:20:00,60.8,59.1,29.49,SSE,167,11.0,11.0,94,0.00,,,0.19,Wunderground v.1.15,2013-05-30 10:20:00,
2013-05-30 05:30:00,60.9,59.2,29.49,SSE,167,9.0,9.0,94,0.00,,,0.19,Wunderground v.1.15,2013-05-30 10:30:00,
2013-05-30 05:40:00,60.9,58.9,29.48,South,177,9.0,9.0,93,0.00,,,0.19,Wunderground v.1.15,2013-05-30 10:40:00,
2013-05-30 05:50:00,60.8,58.8,29.48,South,176,8.0,8.0,93,0.00,,,0.19,Wunderground v.1.15,2013-05-30 10:50:00,
2013-05-30 06:00:00,60.9,58.9,29.50,SW,214,10.0,10.0,93,0.00,,,0.19,Wunderground v.1.15,2013-05-30 11:00:00,
2013-05-30 06:10:00,61.0,59.0,29.49,SSW,194,9.0,9.0,93,0.00,,,0.19,Wunderground v.1.15,2013-05-30 11:10:00,
2013-05-30 06:15:00,61.0,59.0,29.49,South,180,8.0,10.0,93,0.00,,,0.19,Wunderground v.1.15,2013-05-30 11:15:00,
2013-05-30 06:25:00,61.2,58.9,29.49,SSW,193,9.0,9.0,92,0.00,,,0.19,Wunderground v.1.15,2013-05-30 11:25:00,
2013-05-30 06:30:00,61.4,59.1,29.49,SSW,203,9.0,9.0,92,0.00,,,0.19,Wunderground v.1.15,2013-05-30 11:30:00,
2013-05-30 06:40:00,61.8,59.1,29.50,South,173,10.0,14.0,91,0.00,,,0.19,Wunderground v.1.15,2013-05-30 11:40:00,
2013-05-30 06:50:00,62.1,59.4,29.51,SSW,197,12.0,14.0,91,0.00,,,0.19,Wunderground v.1.15,2013-05-30 11:50:00,
2013-05-30 07:00:00,62.1,59.4,29.51,South,180,12.0,15.0,91,0.00,,,0.19,Wunderground v.1.15,2013-05-30 12:00:00,
2013-05-30 07:10:00,62.0,59.6,29.53,South,188,14.0,14.0,92,0.00,,,0.19,Wunderground v.1.15,2013-05-30 12:10:00,
2013-05-30 07:15:00,61.9,59.5,29.52,SW,219,13.0,14.0,92,0.00,,,0.19,Wunderground v.1.15,2013-05-30 12:15:00,
2013-05-30 07:20:00,61.7,59.4,29.52,SSW,207,13.0,13.0,92,0.00,,,0.19,Wunderground v.1.15,2013-05-30 12:20:00,
2013-05-30 07:30:00,61.4,59.4,29.52,SSW,197,11.0,12.0,93,0.00,,,0.19,Wunderground v.1.15,2013-05-30 12:30:00,
2013-05-30 07:35:00,61.3,59.3,29.52,SSW,203,12.0,12.0,93,0.00,,,0.19,Wunderground v.1.15,2013-05-30 12:35:00,
2013-05-30 07:45:00,61.2,59.2,29.52,SW,222,11.0,12.0,93,0.00,,,0.19,Wunderground v.1.15,2013-05-30 12:45:00,
2013-05-30 07:55:00,61.1,59.1,29.53,SW,229,10.0,10.0,93,0.00,,,0.19,Wunderground v.1.15,2013-05-30 12:55:00,
2013-05-30 08:00:00,60.9,58.9,29.52,WSW,253,9.0,9.0,93,0.00,,,0.19,Wunderground v.1.15,2013-05-30 13:00:00,
2013-05-30 08:10:00,60.8,58.8,29.53,SW,226,7.0,7.0,93,0.00,,,0.20,Wunderground v.1.15,2013-05-30 13:10:00,
2013-05-30 08:20:00,60.6,58.9,29.52,SW,222,6.0,6.0,94,0.00,,,0.20,Wunderground v.1.15,2013-05-30 13:20:00,
2013-05-30 08:30:00,60.6,58.9,29.52,SW,214,6.0,6.0,94,0.00,,,0.20,Wunderground v.1.15,2013-05-30 13:30:00,
2013-05-30 08:40:00,60.7,59.0,29.53,SSW,194,6.0,6.0,94,0.00,,,0.20,Wunderground v.1.15,2013-05-30 13:40:00,
2013-05-30 08:50:00,61.0,59.3,29.52,SSW,212,5.0,5.0,94,0.00,,,0.20,Wunderground v.1.15,2013-05-30 13:50:00,
2013-05-30 09:00:00,61.3,59.3,29.52,SSW,210,3.0,3.0,93,0.00,,,0.20,Wunderground v.1.15,2013-05-30 14:00:00,
2013-05-30 09:10:00,60.3,59.2,29.53,SSW,212,4.0,6.0,96,0.00,,,0.21,Wunderground v.1.15,2013-05-30 14:10:00,
2013-05-30 09:15:00,60.4,59.3,29.53,South,174,5.0,6.0,96,0.00,,,0.21,Wunderground v.1.15,2013-05-30 14:15:00,
2013-05-30 09:25:00,60.7,59.8,29.54,South,190,7.0,8.0,97,0.00,,,0.21,Wunderground v.1.15,2013-05-30 14:25:00,
2013-05-30 09:30:00,60.7,59.8,29.54,SSW,210,8.0,10.0,97,0.00,,,0.21,Wunderground v.1.15,2013-05-30 14:30:00,
2013-05-30 09:40:00,61.0,60.1,29.54,South,172,8.0,8.0,97,0.00,,,0.21,Wunderground v.1.15,2013-05-30 14:40:00,
2013-05-30 09:50:00,61.1,60.2,29.53,South,181,8.0,8.0,97,0.00,,,0.21,Wunderground v.1.15,2013-05-30 14:50:00,
2013-05-30 10:00:00,61.0,60.1,29.53,SSE,155,7.0,7.0,97,0.00,,,0.21,Wunderground v.1.15,2013-05-30 15:00:00,
2013-05-30 10:10:00,61.1,60.2,29.53,South,176,8.0,9.0,97,0.00,,,0.21,Wunderground v.1.15,2013-05-30 15:10:00,
2013-05-30 10:15:00,61.5,60.6,29.53,South,172,8.0,9.0,97,0.00,,,0.21,Wunderground v.1.15,2013-05-30 15:15:00,
2013-05-30 10:25:00,61.5,60.6,29.53,SSE,147,10.0,11.0,97,0.00,,,0.21,Wunderground v.1.15,2013-05-30 15:25:00,
2013-05-30 10:35:00,61.6,60.7,29.54,SSE,166,10.0,12.0,97,0.00,,,0.21,Wunderground v.1.15,2013-05-30 15:35:00,
2013-05-30 10:45:00,61.9,61.0,29.54,SSE,150,9.0,10.0,97,0.00,,,0.21,Wunderground v.1.15,2013-05-30 15:45:00,
2013-05-30 10:55:00,62.7,61.8,29.54,South,186,8.0,10.0,97,0.00,,,0.21,Wunderground v.1.15,2013-05-30 15:55:00,
2013-05-30 11:00:00,63.0,62.1,29.55,SSW,210,8.0,8.0,97,0.00,,,0.21,Wunderground v.1.15,2013-05-30 16:00:00,
2013-05-30 11:05:00,63.3,62.4,29.55,SW,222,8.0,9.0,97,0.00,,,0.21,Wunderground v.1.15,2013-05-30 16:05:00,
2013-05-30 11:15:00,64.4,63.2,29.55,SSW,198,8.0,9.0,96,0.00,,,0.21,Wunderground v.1.15,2013-05-30 16:15:00,
2013-05-30 11:20:00,65.1,63.9,29.55,South,188,9.0,9.0,96,0.00,,,0.21,Wunderground v.1.15,2013-05-30 16:20:00,
2013-05-30 11:30:00,66.0,63.3,29.54,South,186,9.0,10.0,91,0.00,,,0.21,Wunderground v.1.15,2013-05-30 16:30:00,
2013-05-30 11:40:00,66.3,63.3,29.54,SSE,166,7.0,8.0,90,0.00,,,0.21,Wunderground v.1.15,2013-05-30 16:40:00,
2013-05-30 11:45:00,66.4,62.7,29.53,South,169,7.0,9.0,88,0.00,,,0.21,Wunderground v.1.15,2013-05-30 16:45:00,
2013-05-30 11:55:00,66.7,62.7,29.53,South,172,7.0,8.0,87,0.00,,,0.21,Wunderground v.1.15,2013-05-30 16:55:00,
2013-05-30 12:00:00,67.1,63.1,29.53,SE,146,7.0,7.0,87,0.00,,,0.21,Wunderground v.1.15,2013-05-30 17:00:00,
2013-05-30 12:10:00,67.9,63.2,29.53,SSE,152,7.0,9.0,85,0.00,,,0.21,Wunderground v.1.15,2013-05-30 17:10:00,
2013-05-30 12:20:00,68.0,62.6,29.54,SSE,162,8.0,10.0,83,0.00,,,0.21,Wunderground v.1.15,2013-05-30 17:20:00,
2013-05-30 12:30:00,68.6,62.9,29.53,SSE,159,8.0,12.0,82,0.00,,,0.21,Wunderground v.1.15,2013-05-30 17:30:00,
2013-05-30 12:40:00,69.0,63.3,29.53,South,170,9.0,9.0,82,0.00,,,0.21,Wunderground v.1.15,2013-05-30 17:40:00,
2013-05-30 12:50:00,70.1,64.3,29.52,SSE,160,9.0,10.0,82,0.00,,,0.21,Wunderground v.1.15,2013-05-30 17:50:00,
2013-05-30 13:00:00,69.7,62.5,29.52,South,176,9.0,9.0,78,0.00,,,0.21,Wunderground v.1.15,2013-05-30 18:00:00,
2013-05-30 13:10:00,70.3,63.8,29.52,South,191,9.0,9.0,80,0.00,,,0.21,Wunderground v.1.15,2013-05-30 18:10:00,
2013-05-30 13:15:00,70.1,62.9,29.52,SSE,162,9.0,9.0,78,0.00,,,0.21,Wunderground v.1.15,2013-05-30 18:15:00,
2013-05-30 13:25:00,70.5,63.3,29.52,SE,141,9.0,11.0,78,0.00,,,0.21,Wunderground v.1.15,2013-05-30 18:25:00,
2013-05-30 13:35:00,70.8,64.0,29.51,SSE,165,10.0,10.0,79,0.00,,,0.21,Wunderground v.1.15,2013-05-30 18:35:00,
2013-05-30 13:45:00,70.7,63.1,29.50,SSE,153,9.0,10.0,77,0.00,,,0.21,Wunderground v.1.15,2013-05-30 18:45:00,
2013-05-30 13:55:00,71.5,64.3,29.50,SSE,164,9.0,11.0,78,0.00,,,0.21,Wunderground v.1.15,2013-05-30 18:55:00,
2013-05-30 14:00:00,71.3,63.7,29.50,South,180,10.0,10.0,77,0.00,,,0.21,Wunderground v.1.15,2013-05-30 19:00:00,
2013-05-30 14:10:00,71.9,64.3,29.49,SSW,195,9.0,9.0,77,0.00,,,0.21,Wunderground v.1.15,2013-05-30 19:10:00,
2013-05-30 14:20:00,72.3,63.9,29.49,SSW,197,9.0,12.0,75,0.00,,,0.21,Wunderground v.1.15,2013-05-30 19:20:00,
2013-05-30 14:30:00,72.0,62.9,29.50,South,173,10.0,10.0,73,0.00,,,0.21,Wunderground v.1.15,2013-05-30 19:30:00,
2013-05-30 14:40:00,72.2,63.1,29.49,SSE,156,10.0,10.0,73,0.00,,,0.21,Wunderground v.1.15,2013-05-30 19:40:00,
2013-05-30 14:50:00,73.1,64.7,29.49,South,181,11.0,11.0,75,0.00,,,0.21,Wunderground v.1.15,2013-05-30 19:50:00,
2013-05-30 15:00:00,72.5,62.6,29.48,SSW,212,11.0,11.0,71,0.00,,,0.21,Wunderground v.1.15,2013-05-30 20:00:00,
2013-05-30 15:10:00,73.0,63.0,29.48,SW,222,10.0,10.0,71,0.00,,,0.21,Wunderground v.1.15,2013-05-30 20:10:00,
2013-05-30 15:15:00,73.8,64.2,29.48,WSW,250,10.0,10.0,72,0.00,,,0.21,Wunderground v.1.15,2013-05-30 20:15:00,
2013-05-30 15:20:00,73.5,63.1,29.48,SW,232,10.0,10.0,70,0.00,,,0.21,Wunderground v.1.15,2013-05-30 20:20:00,
2013-05-30 15:30:00,73.8,64.6,29.49,SW,233,11.0,12.0,73,0.00,,,0.21,Wunderground v.1.15,2013-05-30 20:30:00,
2013-05-30 15:40:00,73.5,63.1,29.49,SW,224,12.0,12.0,70,0.00,,,0.21,Wunderground v.1.15,2013-05-30 20:40:00,
2013-05-30 15:45:00,73.5,63.5,29.49,SW,232,11.0,12.0,71,0.00,,,0.21,Wunderground v.1.15,2013-05-30 20:45:00,
2013-05-30 15:55:00,74.3,64.3,29.49,SW,226,10.0,10.0,71,0.00,,,0.21,Wunderground v.1.15,2013-05-30 20:55:00,
2013-05-30 16:00:00,74.2,63.8,29.49,WSW,238,11.0,11.0,70,0.00,,,0.21,Wunderground v.1.15,2013-05-30 21:00:00,
2013-05-30 16:15:00,74.3,65.1,29.48,SW,222,8.0,10.0,73,0.00,,,0.21,Wunderground v.1.15,2013-05-30 21:15:00,
2013-05-30 16:25:00,74.2,64.2,29.48,SW,218,12.0,12.0,71,0.00,,,0.21,Wunderground v.1.15,2013-05-30 21:25:00,
2013-05-30 16:35:00,74.6,64.2,29.48,SW,228,10.0,11.0,70,0.00,,,0.21,Wunderground v.1.15,2013-05-30 21:35:00,
2013-05-30 16:45:00,75.6,63.9,29.48,SSW,211,11.0,12.0,67,0.00,,,0.21,Wunderground v.1.15,2013-05-30 21:45:00,
2013-05-30 16:55:00,75.0,63.7,29.47,SSW,204,11.0,11.0,68,0.00,,,0.21,Wunderground v.1.15,2013-05-30 21:55:00,
2013-05-30 17:00:00,74.8,63.9,29.47,SSW,212,11.0,11.0,69,0.00,,,0.21,Wunderground v.1.15,2013-05-30 22:00:00,
2013-05-30 17:05:00,75.0,64.5,29.47,SSW,212,11.0,11.0,70,0.00,,,0.21,Wunderground v.1.15,2013-05-30 22:05:00,
2013-05-30 17:15:00,76.0,64.2,29.47,SSW,200,11.0,11.0,67,0.00,,,0.21,Wunderground v.1.15,2013-05-30 22:15:00,
2013-05-30 17:20:00,76.5,64.7,29.46,SSW,204,10.0,11.0,67,0.00,,,0.21,Wunderground v.1.15,2013-05-30 22:20:00,
2013-05-30 17:30:00,76.9,63.8,29.46,SW,217,11.0,13.0,64,0.00,,,0.21,Wunderground v.1.15,2013-05-30 22:30:00,
2013-05-30 17:40:00,76.5,63.4,29.46,SW,219,10.0,10.0,64,0.00,,,0.21,Wunderground v.1.15,2013-05-30 22:40:00,
2013-05-30 17:50:00,77.3,64.2,29.46,SSW,212,10.0,10.0,64,0.00,,,0.21,Wunderground v.1.15,2013-05-30 22:50:00,
2013-05-30 18:00:00,77.3,64.6,29.46,SW,222,11.0,11.0,65,0.00,,,0.21,Wunderground v.1.15,2013-05-30 23:00:00,
2013-05-30 18:10:00,77.4,66.0,29.46,SSE,149,9.0,13.0,68,0.00,,,0.21,Wunderground v.1.15,2013-05-30 23:10:00,
2013-05-30 18:20:00,75.4,65.3,29.46,SSE,150,11.0,12.0,71,0.00,,,0.21,Wunderground v.1.15,2013-05-30 23:20:00,
2013-05-30 18:30:00,74.8,65.2,29.47,SSW,211,10.0,10.0,72,0.00,,,0.21,Wunderground v.1.15,2013-05-30 23:30:00,
2013-05-30 18:40:00,73.6,65.2,29.47,South,176,10.0,10.0,75,0.00,,,0.21,Wunderground v.1.15,2013-05-30 23:40:00,
2013-05-30 18:50:00,72.2,65.7,29.48,South,176,8.0,8.0,80,0.00,,,0.21,Wunderground v.1.15,2013-05-30 23:50:00,
2013-05-30 19:00:00,71.8,65.7,29.47,SSW,197,9.0,11.0,81,0.00,,,0.21,Wunderground v.1.15,2013-05-31 00:00:00,
2013-05-30 19:10:00,70.8,59.7,29.47,South,186,14.0,14.0,68,0.00,,,0.21,Wunderground v.1.15,2013-05-31 00:10:00,
2013-05-30 19:20:00,70.1,61.8,29.48,SSW,194,14.0,14.0,75,0.00,,,0.21,Wunderground v.1.15,2013-05-31 00:20:00,
2013-05-30 19:30:00,69.8,59.6,29.47,South,180,11.0,11.0,70,0.00,,,0.21,Wunderground v.1.15,2013-05-31 00:30:00,
2013-05-30 19:40:00,68.9,60.6,29.47,South,188,10.0,10.0,75,0.00,,,0.21,Wunderground v.1.15,2013-05-31 00:40:00,
2013-05-30 19:50:00,68.8,59.8,29.48,South,184,7.0,7.0,73,0.00,,,0.21,Wunderground v.1.15,2013-05-31 00:50:00,
2013-05-30 20:00:00,68.7,60.1,29.49,SSE,166,7.0,8.0,74,0.00,,,0.21,Wunderground v.1.15,2013-05-31 01:00:00,
2013-05-30 20:10:00,68.6,61.8,29.50,South,172,8.0,10.0,79,0.00,,,0.21,Wunderground v.1.15,2013-05-31 01:10:00,
2013-05-30 20:15:00,68.6,62.9,29.50,South,176,9.0,10.0,82,0.00,,,0.21,Wunderground v.1.15,2013-05-31 01:15:00,
2013-05-30 20:25:00,67.8,60.3,29.51,South,183,13.0,13.0,77,0.00,,,0.21,Wunderground v.1.15,2013-05-31 01:25:00,
2013-05-30 20:30:00,66.8,59.7,29.51,SSE,158,12.0,12.0,78,0.00,,,0.21,Wunderground v.1.15,2013-05-31 01:30:00,
2013-05-30 20:40:00,65.6,60.0,29.51,SSE,148,8.0,9.0,82,0.00,,,0.21,Wunderground v.1.15,2013-05-31 01:40:00,
2013-05-30 20:50:00,65.5,57.7,29.51,SSW,194,10.0,10.0,76,0.00,,,0.21,Wunderground v.1.15,2013-05-31 01:50:00,
2013-05-30 21:00:00,64.7,57.7,29.52,SSW,208,8.0,8.0,78,0.00,,,0.21,Wunderground v.1.15,2013-05-31 02:00:00,
2013-05-30 21:10:00,64.2,57.5,29.53,SSW,212,7.0,9.0,79,0.00,,,0.21,Wunderground v.1.15,2013-05-31 02:10:00,
2013-05-30 21:15:00,63.9,57.3,29.52,SSW,205,7.0,9.0,79,0.00,,,0.21,Wunderground v.1.15,2013-05-31 02:15:00,
2013-05-30 21:25:00,62.9,57.3,29.53,SSW,193,5.0,6.0,82,0.00,,,0.21,Wunderground v.1.15,2013-05-31 02:25:00,
2013-05-30 21:35:00,62.0,56.8,29.53,SSE,160,5.0,5.0,83,0.00,,,0.21,Wunderground v.1.15,2013-05-31 02:35:00,
2013-05-30 21:45:00,61.2,56.0,29.54,SSW,195,4.0,5.0,83,0.00,,,0.21,Wunderground v.1.15,2013-05-31 02:45:00,
2013-05-30 21:55:00,60.4,55.9,29.54,South,176,3.0,5.0,85,0.00,,,0.21,Wunderground v.1.15,2013-05-31 02:55:00,
2013-05-30 22:00:00,60.1,55.6,29.55,SSW,208,3.0,5.0,85,0.00,,,0.21,Wunderground v.1.15,2013-05-31 03:00:00,
2013-05-30 22:10:00,59.9,55.4,29.55,South,180,5.0,5.0,85,0.00,,,0.21,Wunderground v.1.15,2013-05-31 03:10:00,
2013-05-30 22:20:00,59.7,55.2,29.55,South,174,4.0,4.0,85,0.00,,,0.21,Wunderground v.1.15,2013-05-31 03:20:00,
2013-05-30 22:30:00,59.4,55.2,29.56,South,170,5.0,5.0,86,0.00,,,0.21,Wunderground v.1.15,2013-05-31 03:30:00,
2013-05-30 22:40:00,59.4,55.2,29.56,SSW,200,4.0,4.0,86,0.00,,,0.21,Wunderground v.1.15,2013-05-31 03:40:00,
2013-05-30 22:50:00,59.2,55.0,29.56,South,177,4.0,4.0,86,0.00,,,0.21,Wunderground v.1.15,2013-05-31 03:50:00,
2013-05-30 23:00:00,58.9,55.0,29.56,SSE,158,4.0,4.0,87,0.00,,,0.21,Wunderground v.1.15,2013-05-31 04:00:00,
2013-05-30 23:05:00,59.3,55.1,29.56,SSE,148,4.0,4.0,86,0.00,,,0.21,Wunderground v.1.15,2013-05-31 04:05:00,
2013-05-30 23:10:00,59.5,55.0,29.56,SSE,158,4.0,4.0,85,0.00,,,0.21,Wunderground v.1.15,2013-05-31 04:10:00,
2013-05-30 23:15:00,59.4,54.9,29.56,SE,145,4.0,5.0,85,0.00,,,0.21,Wunderground v.1.15,2013-05-31 04:15:00,
2013-05-30 23:25:00,58.9,54.7,29.56,SSE,148,3.0,4.0,86,0.00,,,0.21,Wunderground v.1.15,2013-05-31 04:25:00,
2013-05-30 23:35:00,58.5,54.6,29.56,SSE,153,2.0,3.0,87,0.00,,,0.21,Wunderground v.1.15,2013-05-31 04:35:00,
2013-05-30 23:45:00,58.2,54.7,29.56,SSW,193,4.0,6.0,88,0.00,,,0.21,Wunderground v.1.15,2013-05-31 04:45:00,
2013-05-30 23:55:00,57.4,54.2,29.57,South,170,2.0,3.0,89,0.00,,,0.21,Wunderground v.1.15,2013-05-31 04:55:00,